createdAt,value
2023-03-04T00:00:47.932Z,1.10
2023-03-04T00:02:49.664Z,1.20
2023-03-04T00:04:51.379Z,1.10
2023-03-04T00:06:53.122Z,1.10
2023-03-04T00:08:54.686Z,1.00
2023-03-04T00:10:56.384Z,1.00
2023-03-04T00:12:58.004Z,1.10
2023-03-04T00:14:59.608Z,1.00
2023-03-04T00:17:03.653Z,1.00
2023-03-04T00:19:05.447Z,1.10
2023-03-04T00:21:07.087Z,1.10
2023-03-04T00:23:08.752Z,1.00
2023-03-04T00:25:10.438Z,1.00
2023-03-04T00:27:12.025Z,0.90
2023-03-04T00:29:13.662Z,1.00
2023-03-04T00:31:15.440Z,1.00
2023-03-04T00:33:17.160Z,0.90
2023-03-04T00:35:18.816Z,0.90
2023-03-04T00:37:26.841Z,0.80
2023-03-04T00:39:28.643Z,0.90
2023-03-04T00:41:30.285Z,0.80
2023-03-04T00:43:33.610Z,0.70
2023-03-04T00:45:35.291Z,0.70
2023-03-04T00:47:37.004Z,0.80
2023-03-04T00:49:38.635Z,0.70
2023-03-04T00:51:40.253Z,0.70
2023-03-04T00:53:41.871Z,0.60
2023-03-04T00:55:43.575Z,0.60
2023-03-04T00:57:45.181Z,0.50
2023-03-04T00:59:46.990Z,0.60
2023-03-04T01:01:48.946Z,0.70
2023-03-04T01:03:50.551Z,0.70
2023-03-04T01:05:52.435Z,0.60
2023-03-04T01:07:54.263Z,0.60
2023-03-04T01:09:55.928Z,0.50
2023-03-04T01:11:57.589Z,0.40
2023-03-04T01:13:59.318Z,0.40
2023-03-04T01:16:01.306Z,0.40
2023-03-04T01:18:02.953Z,0.50
2023-03-04T01:20:05.074Z,0.60
2023-03-04T01:22:06.782Z,0.60
2023-03-04T01:24:08.426Z,0.70
2023-03-04T01:26:10.062Z,0.60
2023-03-04T01:28:11.812Z,0.60
2023-03-04T01:30:13.444Z,0.50
2023-03-04T01:32:15.269Z,0.50
2023-03-04T01:34:18.085Z,0.50
2023-03-04T01:36:19.701Z,0.50
2023-03-04T01:38:21.281Z,0.50
2023-03-04T01:40:22.895Z,0.40
2023-03-04T01:42:26.292Z,0.40
2023-03-04T01:44:28.184Z,0.40
2023-03-04T01:46:30.327Z,0.50
2023-03-04T01:48:34.076Z,0.40
2023-03-04T01:50:35.901Z,0.40
2023-03-04T01:52:39.095Z,0.40
2023-03-04T01:54:41.324Z,0.30
2023-03-04T01:56:44.201Z,0.40
2023-03-04T01:58:45.889Z,0.40
2023-03-04T02:00:47.536Z,0.30
2023-03-04T02:02:50.860Z,0.40
2023-03-04T02:04:52.521Z,0.30
2023-03-04T02:06:55.175Z,0.30
2023-03-04T02:08:57.321Z,0.20
2023-03-04T02:10:59.015Z,0.20
2023-03-04T02:13:00.706Z,0.20
2023-03-04T02:15:02.338Z,0.10
2023-03-04T02:17:05.959Z,0.10
2023-03-04T02:19:13.117Z,0.20
2023-03-04T02:21:18.782Z,0.20
2023-03-04T02:23:24.918Z,0.20
2023-03-04T02:25:31.024Z,0.10
2023-03-04T02:27:32.881Z,0.10
2023-03-04T02:29:34.678Z,0.00
2023-03-04T02:31:37.663Z,0.00
2023-03-04T02:33:39.297Z,0.00
2023-03-04T02:35:40.948Z,0.00
2023-03-04T02:37:42.534Z,0.00
2023-03-04T02:39:44.969Z,0.00
2023-03-04T02:41:47.341Z,0.00
2023-03-04T02:43:49.991Z,0.00
2023-03-04T02:45:51.673Z,0.00
2023-03-04T02:47:53.372Z,-0.10
2023-03-04T02:49:55.138Z,-0.10
2023-03-04T02:52:07.687Z,-0.10
2023-03-04T02:54:20.054Z,-0.10
2023-03-04T02:56:21.737Z,-0.20
2023-03-04T02:58:23.350Z,-0.20
2023-03-04T03:00:25.253Z,-0.20
2023-03-04T03:02:26.977Z,-0.20
2023-03-04T03:04:28.819Z,-0.30
2023-03-04T03:06:30.388Z,-0.20
2023-03-04T03:08:32.048Z,-0.30
2023-03-04T03:10:33.703Z,-0.20
2023-03-04T03:12:35.342Z,-0.20
2023-03-04T03:14:37.018Z,-0.20
2023-03-04T03:16:38.741Z,-0.20
2023-03-04T03:18:41.459Z,-0.20
2023-03-04T03:20:43.217Z,-0.20
2023-03-04T03:22:44.850Z,-0.20
2023-03-04T03:24:46.414Z,-0.30
2023-03-04T03:26:48.057Z,-0.40
2023-03-04T03:28:49.628Z,-0.30
2023-03-04T03:30:51.366Z,-0.30
2023-03-04T03:32:53.008Z,-0.30
2023-03-04T03:34:54.771Z,-0.30
2023-03-04T03:36:56.517Z,-0.40
2023-03-04T03:38:58.176Z,-0.40
2023-03-04T03:40:59.887Z,-0.40
2023-03-04T03:43:01.572Z,-0.40
2023-03-04T03:45:03.604Z,-0.40
2023-03-04T03:47:05.292Z,-0.50
2023-03-04T03:49:07.002Z,-0.50
2023-03-04T03:51:08.661Z,-0.50
2023-03-04T03:53:10.293Z,-0.50
2023-03-04T03:55:12.037Z,-0.50
2023-03-04T03:57:13.701Z,-0.50
2023-03-04T03:59:15.421Z,-0.50
2023-03-04T04:01:17.040Z,-0.50
2023-03-04T04:03:19.013Z,-0.50
2023-03-04T04:05:21.017Z,-0.50
2023-03-04T04:07:23.721Z,-0.60
2023-03-04T04:09:25.506Z,-0.60
2023-03-04T04:11:27.958Z,-0.60
2023-03-04T04:13:29.562Z,-0.60
2023-03-04T04:15:31.167Z,-0.60
2023-03-04T04:17:32.708Z,-0.60
2023-03-04T04:19:34.323Z,-0.60
2023-03-04T04:21:35.880Z,-0.70
2023-03-04T04:23:37.788Z,-0.70
2023-03-04T04:25:39.393Z,-0.70
2023-03-04T04:27:41.015Z,-0.80
2023-03-04T04:29:42.590Z,-0.70
2023-03-04T04:31:44.198Z,-0.80
2023-03-04T04:33:45.804Z,-0.80
2023-03-04T04:35:47.489Z,-0.80
2023-03-04T04:37:49.047Z,-0.80
2023-03-04T04:39:51.758Z,-0.80
2023-03-04T04:41:53.399Z,-0.80
2023-03-04T04:43:55.064Z,-0.80
2023-03-04T04:45:59.072Z,-0.80
2023-03-04T04:48:00.790Z,-0.90
2023-03-04T04:50:02.382Z,-0.80
2023-03-04T04:52:04.036Z,-0.80
2023-03-04T04:54:06.170Z,-0.90
2023-03-04T04:56:12.255Z,-1.00
2023-03-04T04:58:13.910Z,-1.00
2023-03-04T05:00:15.670Z,-1.00
2023-03-04T05:02:17.299Z,-1.00
2023-03-04T05:04:18.877Z,-1.00
2023-03-04T05:06:21.346Z,-1.00
2023-03-04T05:08:23.068Z,-1.00
2023-03-04T05:10:24.793Z,-1.10
2023-03-04T05:12:26.484Z,-1.00
2023-03-04T05:14:32.662Z,-1.10
2023-03-04T05:16:34.310Z,-1.00
2023-03-04T05:18:35.987Z,-1.00
2023-03-04T05:20:37.621Z,-1.10
2023-03-04T05:22:39.220Z,-1.10
2023-03-04T05:24:40.812Z,-1.20
2023-03-04T05:26:42.497Z,-1.20
2023-03-04T05:28:44.355Z,-1.20
2023-03-04T05:30:46.364Z,-1.10
2023-03-04T05:32:47.936Z,-1.10
2023-03-04T05:34:49.617Z,-1.20
2023-03-04T05:36:51.200Z,-1.20
2023-03-04T05:38:52.806Z,-1.20
2023-03-04T05:40:58.806Z,-1.20
2023-03-04T05:43:00.487Z,-1.30
2023-03-04T05:45:02.120Z,-1.20
2023-03-04T05:47:03.709Z,-1.20
2023-03-04T05:49:05.303Z,-1.30
2023-03-04T05:51:06.877Z,-1.30
2023-03-04T05:53:08.424Z,-1.30
2023-03-04T05:55:10.247Z,-1.20
2023-03-04T05:57:11.816Z,-1.20
2023-03-04T05:59:14.047Z,-1.30
2023-03-04T06:01:16.050Z,-1.30
2023-03-04T06:03:18.817Z,-1.30
2023-03-04T06:05:22.170Z,-1.30
2023-03-04T06:07:24.054Z,-1.30
2023-03-04T06:09:25.775Z,-1.30
2023-03-04T06:11:27.389Z,-1.30
2023-03-04T06:13:28.982Z,-1.30
2023-03-04T06:15:30.861Z,-1.30
2023-03-04T06:17:32.763Z,-1.30
2023-03-04T06:19:34.473Z,-1.30
2023-03-04T06:21:36.154Z,-1.30
2023-03-04T06:23:37.819Z,-1.30
2023-03-04T06:25:40.572Z,-1.20
2023-03-04T06:27:42.254Z,-1.30
2023-03-04T06:29:43.870Z,-1.20
2023-03-04T06:31:45.517Z,-1.30
2023-03-04T06:33:47.114Z,-1.20
2023-03-04T06:35:48.850Z,-1.20
2023-03-04T06:37:50.557Z,-1.20
2023-03-04T06:39:52.459Z,-1.20
2023-03-04T06:41:54.105Z,-1.20
2023-03-04T06:43:55.833Z,-1.10
2023-03-04T06:45:57.619Z,-1.10
2023-03-04T06:47:59.328Z,-1.10
2023-03-04T06:50:00.994Z,-1.10
2023-03-04T06:52:02.837Z,-1.10
2023-03-04T06:54:04.553Z,-1.00
2023-03-04T06:56:07.235Z,-0.90
2023-03-04T06:58:12.461Z,-0.80
2023-03-04T07:00:14.929Z,-0.70
2023-03-04T07:02:19.314Z,-0.50
2023-03-04T07:04:26.898Z,-0.40
2023-03-04T07:06:38.908Z,-0.30
2023-03-04T07:08:47.920Z,-0.20
2023-03-04T07:10:50.003Z,-0.10
2023-03-04T07:12:51.972Z,0.00
2023-03-04T07:14:56.262Z,0.30
2023-03-04T07:16:58.464Z,0.50
2023-03-04T07:19:02.685Z,0.40
2023-03-04T07:21:05.355Z,0.40
2023-03-04T07:23:07.416Z,0.40
2023-03-04T07:25:12.110Z,0.60
2023-03-04T07:27:14.922Z,0.70
2023-03-04T07:29:24.661Z,0.90
2023-03-04T07:31:33.238Z,0.70
2023-03-04T07:33:35.082Z,0.70
2023-03-04T07:35:40.395Z,0.60
2023-03-04T07:37:42.433Z,0.80
2023-03-04T07:39:49.853Z,0.90
2023-03-04T07:41:51.692Z,1.00
2023-03-04T07:43:53.510Z,1.00
2023-03-04T07:45:58.845Z,1.10
2023-03-04T07:48:01.166Z,1.10
2023-03-04T07:50:05.378Z,0.90
2023-03-04T07:52:07.187Z,0.90
2023-03-04T07:54:09.562Z,1.00
2023-03-04T07:56:15.507Z,1.00
2023-03-04T07:58:19.875Z,1.00
2023-03-04T08:00:21.872Z,1.20
2023-03-04T08:02:28.402Z,1.20
2023-03-04T08:04:30.624Z,1.20
2023-03-04T08:06:32.575Z,1.10
2023-03-04T08:08:39.331Z,1.00
2023-03-04T08:10:55.876Z,1.10
2023-03-04T08:13:03.255Z,1.10
2023-03-04T08:15:08.674Z,1.00
2023-03-04T08:17:12.589Z,1.10
2023-03-04T08:19:20.266Z,1.00
2023-03-04T08:21:23.192Z,0.90
2023-03-04T08:23:30.556Z,0.90
2023-03-04T08:25:32.389Z,1.20
2023-03-04T08:27:46.927Z,1.40
2023-03-04T08:30:41.663Z,1.20
2023-03-04T08:32:54.292Z,1.20
2023-03-04T08:34:57.201Z,1.20
2023-03-04T08:37:01.610Z,1.20
2023-03-04T08:39:07.112Z,1.20
2023-03-04T08:41:11.621Z,1.20
2023-03-04T08:43:21.098Z,1.40
2023-03-04T08:45:38.027Z,1.50
2023-03-04T08:47:44.086Z,1.60
2023-03-04T08:49:55.532Z,1.60
2023-03-04T08:51:58.065Z,1.70
2023-03-04T08:54:00.524Z,1.80
2023-03-04T08:56:19.242Z,2.10
2023-03-04T08:58:23.819Z,2.00
2023-03-04T09:00:26.040Z,1.80
2023-03-04T09:02:59.835Z,1.60
2023-03-04T09:05:03.908Z,1.70
2023-03-04T09:07:06.129Z,1.50
2023-03-04T09:09:07.978Z,1.80
2023-03-04T09:11:11.686Z,2.00
2023-03-04T09:13:17.038Z,1.40
2023-03-04T09:15:18.987Z,1.50
2023-03-04T09:17:20.723Z,1.40
2023-03-04T09:19:23.036Z,1.40
2023-03-04T09:21:45.951Z,1.70
2023-03-04T09:24:01.886Z,1.80
2023-03-04T09:53:53.929Z,2.20
2023-03-04T10:06:46.358Z,2.60
2023-03-04T10:13:19.758Z,2.60
2023-03-04T10:15:30.827Z,2.60
2023-03-04T10:17:41.073Z,2.60
2023-03-04T10:19:54.849Z,2.60
2023-03-04T10:21:56.780Z,2.40
2023-03-04T10:24:00.481Z,2.50
2023-03-04T10:26:13.342Z,2.50
2023-03-04T10:28:19.054Z,2.70
2023-03-04T10:30:30.844Z,2.80
2023-03-04T10:32:32.538Z,2.80
2023-03-04T10:34:34.456Z,2.70
2023-03-04T10:36:49.866Z,2.70
2023-03-04T10:38:57.241Z,2.70
2023-03-04T10:40:59.340Z,2.80
2023-03-04T10:43:00.983Z,2.90
2023-03-04T10:45:02.745Z,2.90
2023-03-04T10:47:09.024Z,3.00
2023-03-04T10:49:11.589Z,2.90
2023-03-04T10:51:19.493Z,3.20
2023-03-04T10:53:25.058Z,3.40
2023-03-04T10:55:29.967Z,3.70
2023-03-04T10:57:34.065Z,3.70
2023-03-04T10:59:38.696Z,3.70
2023-03-04T11:01:40.396Z,3.80
2023-03-04T11:03:47.009Z,3.60
2023-03-04T11:05:48.761Z,3.90
2023-03-04T11:07:58.884Z,4.00
2023-03-04T11:10:09.964Z,4.10
2023-03-04T11:12:13.697Z,4.10
2023-03-04T11:14:31.142Z,4.00
2023-03-04T11:16:34.729Z,4.10
2023-03-04T11:18:39.406Z,4.10
2023-03-04T11:20:47.214Z,4.00
2023-03-04T11:22:49.703Z,4.00
2023-03-04T11:24:57.706Z,3.90
2023-03-04T11:27:05.219Z,3.80
2023-03-04T11:29:29.076Z,3.80
2023-03-04T11:31:33.945Z,3.70
2023-03-04T11:33:44.642Z,3.80
2023-03-04T11:36:09.479Z,3.70
2023-03-04T11:38:16.964Z,3.50
2023-03-04T11:40:23.902Z,3.70
2023-03-04T11:42:33.414Z,4.00
2023-03-04T11:44:35.014Z,4.10
2023-03-04T11:46:36.811Z,4.00
2023-03-04T11:48:53.825Z,3.80
2023-03-04T11:51:05.659Z,3.50
2023-03-04T11:53:13.419Z,3.50
2023-03-04T11:55:33.920Z,3.80
2023-03-04T11:57:56.242Z,3.80
2023-03-04T12:00:16.661Z,4.00
2023-03-04T12:02:18.454Z,3.80
2023-03-04T12:04:29.321Z,3.60
2023-03-04T12:06:38.068Z,3.70
2023-03-04T12:08:39.784Z,3.60
2023-03-04T12:11:01.727Z,3.80
2023-03-04T12:13:06.341Z,3.70
2023-03-04T12:15:14.003Z,3.80
2023-03-04T12:17:19.202Z,3.90
2023-03-04T12:19:39.283Z,3.70
2023-03-04T12:21:59.805Z,3.80
2023-03-04T12:24:01.393Z,3.80
2023-03-04T12:26:08.544Z,3.80
2023-03-04T12:28:17.987Z,3.90
2023-03-04T12:30:35.202Z,3.90
2023-03-04T12:32:36.898Z,3.90
2023-03-04T12:34:53.595Z,4.20
2023-03-04T12:37:11.546Z,3.90
2023-03-04T12:39:39.463Z,4.00
2023-03-04T12:41:41.207Z,3.90
2023-03-04T12:43:43.017Z,3.70
2023-03-04T12:45:56.574Z,3.90
2023-03-04T12:48:10.517Z,4.10
2023-03-04T12:50:12.345Z,4.10
2023-03-04T12:52:20.189Z,4.10
2023-03-04T12:54:40.657Z,4.30
2023-03-04T12:56:44.481Z,4.20
2023-03-04T12:58:46.193Z,4.00
2023-03-04T13:00:59.866Z,3.90
2023-03-04T13:03:01.691Z,3.70
2023-03-04T13:05:19.605Z,4.00
2023-03-04T13:07:25.205Z,3.80
2023-03-04T13:09:28.923Z,4.00
2023-03-04T13:11:31.278Z,4.00
2023-03-04T13:13:32.932Z,3.90
2023-03-04T13:15:36.373Z,3.90
2023-03-04T13:17:38.021Z,3.80
2023-03-04T13:19:55.888Z,3.80
2023-03-04T13:21:58.026Z,3.90
2023-03-04T13:24:19.663Z,3.70
2023-03-04T13:26:21.663Z,3.70
2023-03-04T13:28:24.754Z,4.00
2023-03-04T13:30:32.415Z,3.90
2023-03-04T13:32:38.445Z,3.70
2023-03-04T13:34:46.291Z,3.90
2023-03-04T13:36:57.019Z,4.00
2023-03-04T13:39:22.411Z,4.00
2023-03-04T13:41:28.688Z,3.70
2023-03-04T13:43:49.484Z,3.80
2023-03-04T13:45:51.131Z,3.90
2023-03-04T13:47:52.859Z,4.00
2023-03-04T13:50:13.094Z,3.70
2023-03-04T13:52:33.433Z,3.60
2023-03-04T13:54:35.089Z,3.70
2023-03-04T13:56:37.737Z,4.00
2023-03-04T13:58:39.738Z,3.70
2023-03-04T14:00:47.504Z,3.80
2023-03-04T14:02:49.250Z,4.00
2023-03-04T14:04:54.090Z,3.80
2023-03-04T14:06:58.324Z,3.70
2023-03-04T14:08:59.944Z,3.70
2023-03-04T14:11:01.648Z,3.90
2023-03-04T14:13:04.198Z,3.90
2023-03-04T14:15:25.029Z,3.60
2023-03-04T14:17:31.474Z,3.70
2023-03-04T14:19:38.321Z,3.70
2023-03-04T14:21:44.152Z,3.60
2023-03-04T14:23:45.753Z,3.60
2023-03-04T14:25:47.507Z,3.50
2023-03-04T14:27:49.271Z,3.40
2023-03-04T14:29:57.939Z,3.50
2023-03-04T14:31:59.979Z,3.50
2023-03-04T14:34:02.541Z,3.60
2023-03-04T14:36:04.424Z,3.60
2023-03-04T14:38:19.427Z,3.50
2023-03-04T14:40:24.225Z,3.60
2023-03-04T14:42:27.615Z,3.60
2023-03-04T14:44:37.991Z,3.60
2023-03-04T14:46:56.913Z,3.80
2023-03-04T14:49:07.711Z,3.70
2023-03-04T14:51:28.423Z,3.70
2023-03-04T14:53:31.579Z,3.50
2023-03-04T14:55:33.288Z,3.50
2023-03-04T14:57:35.006Z,3.40
2023-03-04T14:59:36.689Z,3.40
2023-03-04T15:01:38.887Z,3.40
2023-03-04T15:03:41.117Z,3.40
2023-03-04T15:05:42.949Z,3.50
2023-03-04T15:07:49.553Z,3.70
2023-03-04T15:09:54.807Z,3.70
2023-03-04T15:12:00.227Z,3.80
2023-03-04T15:14:02.645Z,3.90
2023-03-04T15:16:04.346Z,3.90
2023-03-04T15:18:24.020Z,3.60
2023-03-04T15:20:27.613Z,3.50
2023-03-04T15:22:29.911Z,3.50
2023-03-04T15:24:31.567Z,3.60
2023-03-04T15:26:34.315Z,3.60
2023-03-04T15:28:37.426Z,3.50
2023-03-04T15:30:39.500Z,3.50
2023-03-04T15:32:41.476Z,3.50
2023-03-04T15:34:43.096Z,3.30
2023-03-04T15:36:46.600Z,3.40
2023-03-04T15:38:52.700Z,3.50
2023-03-04T15:40:56.377Z,3.60
2023-03-04T15:43:00.456Z,3.70
2023-03-04T15:45:02.156Z,3.70
2023-03-04T15:47:03.833Z,3.80
2023-03-04T15:49:05.442Z,3.80
2023-03-04T15:51:11.586Z,3.80
2023-03-04T15:53:19.621Z,3.70
2023-03-04T15:55:22.058Z,3.70
2023-03-04T15:57:25.171Z,3.60
2023-03-04T15:59:26.815Z,3.70
2023-03-04T16:01:28.514Z,3.70
2023-03-04T16:03:30.359Z,3.70
2023-03-04T16:05:35.177Z,3.60
2023-03-04T16:07:38.458Z,3.60
2023-03-04T16:09:40.062Z,3.50
2023-03-04T16:11:44.364Z,3.50
2023-03-04T16:13:45.962Z,3.60
2023-03-04T16:15:48.389Z,3.60
2023-03-04T16:17:50.448Z,3.50
2023-03-04T16:19:52.036Z,3.60
2023-03-04T16:21:53.766Z,3.60
2023-03-04T16:23:55.472Z,3.60
2023-03-04T16:25:57.317Z,3.70
2023-03-04T16:28:02.595Z,3.50
2023-03-04T16:30:04.826Z,3.40
2023-03-04T16:32:06.842Z,3.40
2023-03-04T16:34:08.632Z,3.40
2023-03-04T16:36:12.465Z,3.50
2023-03-04T16:38:21.976Z,3.50
2023-03-04T16:40:25.753Z,3.40
2023-03-04T16:42:27.397Z,3.50
2023-03-04T16:44:29.045Z,3.50
2023-03-04T16:46:30.706Z,3.40
2023-03-04T16:48:32.529Z,3.40
2023-03-04T16:50:35.270Z,3.40
2023-03-04T16:52:36.906Z,3.50
2023-03-04T16:54:39.139Z,3.40
2023-03-04T16:56:40.802Z,3.50
2023-03-04T16:58:42.931Z,3.40
2023-03-04T17:00:44.632Z,3.40
2023-03-04T17:02:48.807Z,3.40
2023-03-04T17:04:50.877Z,3.40
2023-03-04T17:06:52.544Z,3.50
2023-03-04T17:08:54.485Z,3.60
2023-03-04T17:10:56.296Z,3.60
2023-03-04T17:12:57.905Z,3.50
2023-03-04T17:14:59.566Z,3.50
2023-03-04T17:17:02.001Z,3.60
2023-03-04T17:19:03.633Z,3.60
2023-03-04T17:21:06.392Z,3.50
2023-03-04T17:23:08.065Z,3.50
2023-03-04T17:25:10.394Z,3.40
2023-03-04T17:27:12.132Z,3.40
2023-03-04T17:29:13.777Z,3.40
2023-03-04T17:31:17.179Z,3.40
2023-03-04T17:33:18.901Z,3.40
2023-03-04T17:35:20.540Z,3.40
2023-03-04T17:37:22.200Z,3.40
2023-03-04T17:39:24.193Z,3.40
2023-03-04T17:41:26.671Z,3.40
2023-03-04T17:43:28.382Z,3.50
2023-03-04T17:45:30.106Z,3.50
2023-03-04T17:47:31.807Z,3.50
2023-03-04T17:49:36.264Z,3.50
2023-03-04T17:51:38.780Z,3.50
2023-03-04T17:53:41.126Z,3.50
2023-03-04T17:55:52.965Z,3.50
2023-03-04T17:57:57.310Z,3.50
2023-03-04T17:59:58.945Z,3.50
2023-03-04T18:02:00.641Z,3.40
2023-03-04T18:04:02.626Z,3.50
2023-03-04T18:06:04.422Z,3.50
2023-03-04T18:08:06.213Z,3.60
2023-03-04T18:10:08.262Z,3.60
2023-03-04T18:12:10.194Z,3.50
2023-03-04T18:14:14.889Z,3.50
2023-03-04T18:16:18.821Z,3.40
2023-03-04T18:18:20.510Z,3.40
2023-03-04T18:20:22.177Z,3.40
2023-03-04T18:22:23.784Z,3.40
2023-03-04T18:24:25.387Z,3.40
2023-03-04T18:26:27.569Z,3.40
2023-03-04T18:28:29.256Z,3.40
2023-03-04T18:30:31.241Z,3.30
2023-03-04T18:32:49.426Z,3.30
2023-03-04T18:34:52.841Z,3.30
2023-03-04T18:36:54.482Z,3.30
2023-03-04T18:38:57.285Z,3.30
2023-03-04T18:40:59.709Z,3.30
2023-03-04T18:43:01.331Z,3.30
2023-03-04T18:45:03.845Z,3.30
2023-03-04T18:47:06.855Z,3.30
2023-03-04T18:49:09.005Z,3.40
2023-03-04T18:51:10.609Z,3.30
2023-03-04T18:53:12.219Z,3.30
2023-03-04T18:55:14.212Z,3.30
2023-03-04T18:57:16.872Z,3.20
2023-03-04T18:59:23.029Z,3.30
2023-03-04T19:01:25.179Z,3.30
2023-03-04T19:03:26.986Z,3.30
2023-03-04T19:05:30.152Z,3.40
2023-03-04T19:07:31.818Z,3.50
2023-03-04T19:09:33.463Z,3.50
2023-03-04T19:11:35.093Z,3.50
2023-03-04T19:13:36.783Z,3.40
2023-03-04T19:15:38.551Z,3.30
2023-03-04T19:17:40.687Z,3.40
2023-03-04T19:19:42.418Z,3.50
2023-03-04T19:21:44.122Z,3.50
2023-03-04T19:23:45.857Z,3.40
2023-03-04T19:25:47.625Z,3.40
2023-03-04T19:27:51.253Z,3.40
2023-03-04T19:29:52.911Z,3.40
2023-03-04T19:31:54.713Z,3.40
2023-03-04T19:33:56.436Z,3.40
2023-03-04T19:36:01.375Z,3.40
2023-03-04T19:38:03.077Z,3.30
2023-03-04T19:40:05.393Z,3.40
2023-03-04T19:42:07.019Z,3.40
2023-03-04T19:44:08.623Z,3.40
2023-03-04T19:46:10.482Z,3.40
2023-03-04T19:48:12.196Z,3.40
2023-03-04T19:50:14.049Z,3.50
2023-03-04T19:52:15.695Z,3.50
2023-03-04T19:54:17.384Z,3.40
2023-03-04T19:56:19.762Z,3.30
2023-03-04T19:58:21.551Z,3.40
2023-03-04T20:00:24.271Z,3.50
2023-03-04T20:02:26.024Z,3.50
2023-03-04T20:04:27.724Z,3.40
2023-03-04T20:06:29.604Z,3.40
2023-03-04T20:08:31.340Z,3.40
2023-03-04T20:10:36.533Z,3.30
2023-03-04T20:12:38.257Z,3.30
2023-03-04T20:14:39.811Z,3.30
2023-03-04T20:16:41.636Z,3.40
2023-03-04T20:18:43.418Z,3.50
2023-03-04T20:20:45.034Z,3.50
2023-03-04T20:22:46.689Z,3.50
2023-03-04T20:24:48.302Z,3.50
2023-03-04T20:26:50.258Z,3.50
2023-03-04T20:28:51.891Z,3.40
2023-03-04T20:30:54.232Z,3.40
2023-03-04T20:32:55.897Z,3.40
2023-03-04T20:34:58.339Z,3.60
2023-03-04T20:37:00.390Z,3.60
2023-03-04T20:39:04.311Z,3.60
2023-03-04T20:41:10.050Z,3.50
2023-03-04T20:43:11.858Z,3.60
2023-03-04T20:45:13.785Z,3.50
2023-03-04T20:47:15.528Z,3.50
2023-03-04T20:49:23.437Z,3.50
2023-03-04T20:51:26.194Z,3.60
2023-03-04T20:53:27.955Z,3.60
2023-03-04T20:55:30.361Z,3.60
2023-03-04T20:57:32.238Z,3.50
2023-03-04T20:59:34.651Z,3.50
2023-03-04T21:01:37.244Z,3.60
2023-03-04T21:03:40.398Z,3.60
2023-03-04T21:05:41.989Z,3.60
2023-03-04T21:07:43.880Z,3.50
2023-03-04T21:09:45.781Z,3.50
2023-03-04T21:11:48.162Z,3.50
2023-03-04T21:13:55.945Z,3.50
2023-03-04T21:15:57.666Z,3.50
2023-03-04T21:17:59.292Z,3.50
2023-03-04T21:20:00.954Z,3.50
2023-03-04T21:22:03.484Z,3.50
2023-03-04T21:24:05.227Z,3.50
2023-03-04T21:26:06.940Z,3.50
2023-03-04T21:28:08.664Z,3.50
2023-03-04T21:30:11.092Z,3.50
2023-03-04T21:32:25.239Z,3.50
2023-03-04T21:34:33.393Z,3.50
2023-03-04T21:36:35.040Z,3.50
2023-03-04T21:38:38.561Z,3.50
2023-03-04T21:40:40.808Z,3.60
2023-03-04T21:42:42.438Z,3.60
2023-03-04T21:44:51.924Z,3.50
2023-03-04T21:46:54.353Z,3.50
2023-03-04T21:48:55.979Z,3.50
2023-03-04T21:51:01.466Z,3.50
2023-03-04T21:53:03.089Z,3.50
2023-03-04T21:55:05.245Z,3.50
2023-03-04T21:57:06.854Z,3.50
2023-03-04T21:59:10.564Z,3.40
2023-03-04T22:01:13.257Z,3.40
2023-03-04T22:03:15.594Z,3.40
2023-03-04T22:05:19.066Z,3.50
2023-03-04T22:07:21.436Z,3.50
2023-03-04T22:09:23.134Z,3.50
2023-03-04T22:11:24.877Z,3.40
2023-03-04T22:13:26.623Z,3.40
2023-03-04T22:15:28.239Z,3.40
2023-03-04T22:17:29.829Z,3.40
2023-03-04T22:19:31.621Z,3.40
2023-03-04T22:21:33.340Z,3.50
2023-03-04T22:23:35.224Z,3.60
2023-03-04T22:25:38.309Z,3.60
2023-03-04T22:27:39.924Z,3.60
2023-03-04T22:29:41.634Z,3.50
2023-03-04T22:31:43.354Z,3.50
2023-03-04T22:33:45.630Z,3.50
2023-03-04T22:35:47.361Z,3.40
2023-03-04T22:37:49.045Z,3.40
2023-03-04T22:39:50.660Z,3.40
2023-03-04T22:41:52.244Z,3.40
2023-03-04T22:43:53.969Z,3.40
2023-03-04T22:45:59.985Z,3.40
2023-03-04T22:48:01.932Z,3.40
2023-03-04T22:50:03.911Z,3.40
2023-03-04T22:52:05.536Z,3.40
2023-03-04T22:54:07.202Z,3.50
2023-03-04T22:56:09.396Z,3.40
2023-03-04T22:58:10.961Z,3.50
2023-03-04T23:00:22.930Z,3.50
2023-03-04T23:02:24.598Z,3.50
2023-03-04T23:04:26.290Z,3.50
2023-03-04T23:06:30.115Z,3.40
2023-03-04T23:08:32.440Z,3.40
2023-03-04T23:10:34.030Z,3.40
2023-03-04T23:12:35.665Z,3.40
2023-03-04T23:14:37.523Z,3.50
2023-03-04T23:16:43.052Z,3.50
2023-03-04T23:18:47.242Z,3.60
2023-03-04T23:20:48.921Z,3.50
2023-03-04T23:22:50.567Z,3.70
2023-03-04T23:24:52.210Z,3.80
2023-03-04T23:26:53.911Z,3.80
2023-03-04T23:28:56.886Z,3.60
2023-03-04T23:30:58.544Z,3.50
2023-03-04T23:33:00.185Z,3.50
2023-03-04T23:35:02.010Z,3.50
2023-03-04T23:37:03.853Z,3.60
2023-03-04T23:39:06.284Z,3.60
2023-03-04T23:41:09.714Z,3.50
2023-03-04T23:43:11.365Z,3.40
2023-03-04T23:45:13.076Z,3.40
2023-03-04T23:47:14.749Z,3.40
2023-03-04T23:49:17.925Z,3.30
2023-03-04T23:51:24.701Z,3.30
2023-03-04T23:53:26.251Z,3.30
2023-03-04T23:55:28.375Z,3.30
2023-03-04T23:57:29.953Z,3.30
2023-03-04T23:59:31.518Z,3.40
